createdAt,value
2022-08-05T00:01:27.691Z,7.47
2022-08-05T00:03:56.916Z,7.47
2022-08-05T00:06:32.434Z,7.55
2022-08-05T00:09:00.497Z,8.40
2022-08-05T00:11:34.591Z,8.48
2022-08-05T00:14:02.399Z,8.82
2022-08-05T00:16:52.476Z,9.13
2022-08-05T00:19:25.014Z,8.45
2022-08-05T00:22:00.750Z,8.45
2022-08-05T00:24:31.123Z,8.85
2022-08-05T00:26:59.417Z,9.00
2022-08-05T00:29:27.551Z,10.05
2022-08-05T00:32:12.742Z,10.48
2022-08-05T00:35:05.582Z,12.35
2022-08-05T00:37:51.056Z,12.82
2022-08-05T00:40:17.913Z,12.93
2022-08-05T00:42:55.000Z,15.68
2022-08-05T00:45:28.399Z,15.18
2022-08-05T00:48:07.611Z,15.80
2022-08-05T00:50:34.358Z,17.23
2022-08-05T00:53:02.427Z,22.80
2022-08-05T00:55:42.428Z,21.55
2022-08-05T00:58:16.813Z,21.58
2022-08-05T01:00:47.623Z,22.58
2022-08-05T01:03:22.756Z,22.63
2022-08-05T01:05:50.554Z,20.98
2022-08-05T01:08:41.801Z,20.85
2022-08-05T01:11:37.027Z,22.55
2022-08-05T01:14:28.889Z,26.63
2022-08-05T01:17:04.623Z,25.13
2022-08-05T01:20:00.863Z,24.17
2022-08-05T01:22:46.891Z,22.40
2022-08-05T01:25:53.225Z,23.42
2022-08-05T01:28:26.638Z,21.08
2022-08-05T01:31:11.562Z,22.77
2022-08-05T01:33:54.076Z,20.90
2022-08-05T01:36:28.097Z,21.58
2022-08-05T01:38:56.177Z,21.10
2022-08-05T01:41:25.778Z,18.55
2022-08-05T01:43:54.571Z,18.67
2022-08-05T01:46:41.442Z,18.00
2022-08-05T01:49:23.025Z,17.80
2022-08-05T01:51:55.807Z,18.83
2022-08-05T01:54:25.575Z,18.75
2022-08-05T01:58:10.132Z,16.38
2022-08-05T01:59:41.154Z,15.73
2022-08-05T02:02:16.006Z,16.58
2022-08-05T02:04:46.314Z,15.73
2022-08-05T02:07:21.967Z,15.25
2022-08-05T02:09:49.898Z,15.02
2022-08-05T02:12:51.426Z,16.58
2022-08-05T02:15:33.372Z,15.40
2022-08-05T02:18:33.210Z,13.30
2022-08-05T02:21:06.410Z,13.63
2022-08-05T02:23:44.672Z,14.25
2022-08-05T02:26:17.186Z,13.80
2022-08-05T02:28:46.303Z,14.02
2022-08-05T02:31:21.034Z,11.43
2022-08-05T02:33:57.513Z,13.02
2022-08-05T02:36:27.313Z,12.07
2022-08-05T02:38:57.580Z,13.05
2022-08-05T02:41:28.880Z,12.02
2022-08-05T02:44:13.312Z,11.95
2022-08-05T02:46:53.240Z,11.27
2022-08-05T02:49:27.446Z,12.40
2022-08-05T02:52:06.902Z,12.70
2022-08-05T02:54:37.049Z,12.48
2022-08-05T02:57:10.130Z,12.93
2022-08-05T02:59:55.133Z,11.30
2022-08-05T03:02:27.554Z,12.55
2022-08-05T03:04:57.164Z,10.77
2022-08-05T03:08:00.526Z,10.57
2022-08-05T03:10:15.540Z,10.80
2022-08-05T03:12:51.765Z,10.23
2022-08-05T03:15:19.935Z,11.32
2022-08-05T03:17:46.490Z,11.55
2022-08-05T03:20:13.428Z,12.77
2022-08-05T03:22:44.014Z,12.40
2022-08-05T03:25:33.587Z,11.27
2022-08-05T03:28:01.681Z,10.05
2022-08-05T03:30:33.961Z,13.13
2022-08-05T03:33:02.935Z,11.43
2022-08-05T03:35:30.954Z,11.13
2022-08-05T03:38:00.984Z,11.40
2022-08-05T03:40:31.864Z,10.55
2022-08-05T03:42:59.535Z,9.80
2022-08-05T03:45:57.682Z,10.30
2022-08-05T03:48:29.175Z,13.65
2022-08-05T03:52:37.938Z,13.77
2022-08-05T03:55:52.518Z,13.85
2022-08-05T03:57:00.121Z,13.65
2022-08-05T03:59:46.746Z,13.85
2022-08-05T04:02:17.559Z,13.45
2022-08-05T04:05:05.590Z,12.20
2022-08-05T04:07:51.374Z,12.15
2022-08-05T04:10:27.813Z,13.68
2022-08-05T04:12:55.451Z,12.90
2022-08-05T04:15:26.252Z,14.98
2022-08-05T04:17:56.132Z,14.27
2022-08-05T04:20:24.464Z,14.50
2022-08-05T04:22:51.138Z,14.43
2022-08-05T04:25:18.009Z,13.48
2022-08-05T04:27:58.070Z,13.15
2022-08-05T04:30:26.652Z,12.00
2022-08-05T04:32:53.354Z,12.07
2022-08-05T04:35:20.159Z,11.98
2022-08-05T04:38:00.672Z,12.63
2022-08-05T04:40:28.338Z,12.18
2022-08-05T04:42:56.070Z,11.55
2022-08-05T04:45:47.795Z,12.68
2022-08-05T04:48:18.387Z,12.55
2022-08-05T04:51:02.654Z,13.20
2022-08-05T04:53:38.615Z,13.77
2022-08-05T04:56:33.654Z,13.73
2022-08-05T04:58:55.754Z,13.63
2022-08-05T05:01:33.581Z,13.35
2022-08-05T05:04:00.616Z,12.02
2022-08-05T05:06:36.528Z,13.95
2022-08-05T05:09:17.537Z,13.25
2022-08-05T05:11:54.102Z,14.52
2022-08-05T05:14:31.653Z,14.13
2022-08-05T05:17:00.465Z,14.23
2022-08-05T05:19:36.346Z,13.82
2022-08-05T05:22:03.637Z,11.70
2022-08-05T05:24:57.510Z,13.80
2022-08-05T05:27:45.144Z,13.32
2022-08-05T05:30:29.817Z,13.25
2022-08-05T05:33:09.080Z,14.10
2022-08-05T05:35:44.926Z,14.52
2022-08-05T05:38:13.178Z,15.35
2022-08-05T05:40:48.093Z,14.73
2022-08-05T05:43:22.079Z,13.98
2022-08-05T05:46:03.503Z,12.85
2022-08-05T05:48:31.794Z,16.42
2022-08-05T05:50:58.360Z,13.82
2022-08-05T05:53:24.899Z,14.27
2022-08-05T05:56:01.018Z,13.90
2022-08-05T05:58:30.149Z,14.48
2022-08-05T06:01:02.485Z,14.15
2022-08-05T06:03:53.988Z,14.27
2022-08-05T06:06:28.011Z,13.63
2022-08-05T06:08:58.158Z,13.60
2022-08-05T06:11:24.919Z,14.45
2022-08-05T06:13:55.322Z,14.55
2022-08-05T06:16:28.660Z,14.70
2022-08-05T06:19:00.902Z,14.15
2022-08-05T06:21:35.999Z,13.82
2022-08-05T06:24:06.283Z,14.57
2022-08-05T06:26:38.169Z,12.90
2022-08-05T06:29:06.453Z,13.38
2022-08-05T06:31:51.926Z,12.07
2022-08-05T06:34:20.122Z,11.85
2022-08-05T06:36:57.398Z,13.20
2022-08-05T06:39:27.263Z,11.07
2022-08-05T06:41:55.382Z,10.20
2022-08-05T06:44:22.395Z,10.20
2022-08-05T06:46:51.104Z,10.43
2022-08-05T06:49:18.982Z,8.70
2022-08-05T06:51:48.507Z,9.30
2022-08-05T06:54:19.290Z,9.10
2022-08-05T06:56:54.968Z,7.65
2022-08-05T06:59:42.200Z,8.60
2022-08-05T07:02:15.244Z,8.63
2022-08-05T07:04:49.418Z,7.35
2022-08-05T07:07:35.295Z,7.30
2022-08-05T07:10:06.064Z,6.82
2022-08-05T07:12:53.294Z,7.20
2022-08-05T07:16:01.733Z,7.18
2022-08-05T07:18:28.936Z,7.03
2022-08-05T07:20:56.092Z,6.85
2022-08-05T07:23:26.554Z,6.30
2022-08-05T07:25:57.001Z,6.47
2022-08-05T07:28:25.047Z,6.13
2022-08-05T07:30:54.814Z,6.82
2022-08-05T07:33:36.526Z,6.65
2022-08-05T07:36:20.174Z,6.35
2022-08-05T07:38:48.912Z,6.75
2022-08-05T07:42:13.074Z,7.15
2022-08-05T07:44:14.166Z,7.10
2022-08-05T07:46:47.408Z,7.70
2022-08-05T07:49:16.099Z,7.55
2022-08-05T07:51:54.507Z,6.85
2022-08-05T07:54:31.002Z,6.10
2022-08-05T07:57:16.709Z,7.75
2022-08-05T07:59:49.184Z,7.85
2022-08-05T08:02:17.570Z,6.75
2022-08-05T08:04:47.073Z,7.13
2022-08-05T08:07:15.109Z,8.23
2022-08-05T08:09:44.439Z,7.93
2022-08-05T08:12:35.057Z,9.50
2022-08-05T08:15:02.081Z,9.93
2022-08-05T08:17:30.258Z,10.10
2022-08-05T08:20:42.650Z,12.85
2022-08-05T08:22:43.492Z,15.43
2022-08-05T08:25:15.882Z,15.25
2022-08-05T08:27:47.561Z,13.70
2022-08-05T08:30:29.704Z,11.63
2022-08-05T08:33:09.082Z,12.15
2022-08-05T08:35:41.546Z,12.05
2022-08-05T08:38:19.078Z,11.63
2022-08-05T08:41:06.174Z,12.43
2022-08-05T08:45:20.786Z,12.82
2022-08-05T08:46:23.759Z,12.88
2022-08-05T08:49:07.737Z,12.05
2022-08-05T08:52:02.983Z,12.82
2022-08-05T08:54:27.671Z,13.40
2022-08-05T08:56:54.383Z,13.20
2022-08-05T08:59:23.614Z,12.77
2022-08-05T09:01:57.499Z,11.68
2022-08-05T09:04:30.106Z,10.75
2022-08-05T09:06:58.313Z,10.60
2022-08-05T09:09:26.105Z,10.18
2022-08-05T09:12:14.386Z,9.43
2022-08-05T09:14:57.983Z,9.43
2022-08-05T09:17:42.733Z,8.90
2022-08-05T09:20:13.099Z,8.90
2022-08-05T09:23:07.545Z,8.95
2022-08-05T09:26:00.818Z,8.00
2022-08-05T09:28:32.102Z,8.00
2022-08-05T09:31:22.151Z,8.50
2022-08-05T09:34:01.378Z,7.68
2022-08-05T09:36:54.637Z,7.07
2022-08-05T09:39:24.572Z,7.00
2022-08-05T09:42:07.840Z,6.25
2022-08-05T09:44:50.615Z,5.97
2022-08-05T09:47:24.019Z,6.15
2022-08-05T09:50:02.382Z,7.20
2022-08-05T09:52:35.403Z,7.10
2022-08-05T09:55:56.125Z,6.45
2022-08-05T09:57:59.935Z,7.28
2022-08-05T10:00:27.796Z,7.03
2022-08-05T10:02:58.352Z,7.32
2022-08-05T10:05:27.700Z,6.93
2022-08-05T10:08:36.631Z,8.00
2022-08-05T10:10:50.294Z,7.80
2022-08-05T10:13:47.159Z,7.32
2022-08-05T10:16:34.058Z,8.13
2022-08-05T10:19:08.541Z,6.43
2022-08-05T10:21:40.141Z,8.70
2022-08-05T10:24:12.884Z,8.00
2022-08-05T10:26:51.344Z,7.72
2022-08-05T10:30:05.734Z,8.70
2022-08-05T10:32:52.798Z,9.20
2022-08-05T10:35:00.604Z,8.20
2022-08-05T10:37:37.477Z,9.23
2022-08-05T10:40:30.496Z,8.23
2022-08-05T10:43:11.193Z,8.75
2022-08-05T10:45:41.878Z,9.00
2022-08-05T10:48:52.380Z,7.97
2022-08-05T10:51:28.909Z,7.68
2022-08-05T10:53:58.528Z,8.15
2022-08-05T10:56:29.749Z,8.23
2022-08-05T10:59:06.992Z,8.32
2022-08-05T11:01:55.418Z,8.00
2022-08-05T11:04:30.844Z,9.30
2022-08-05T11:07:01.376Z,8.80
2022-08-05T11:09:45.211Z,7.88
2022-08-05T11:12:37.256Z,8.63
2022-08-05T11:15:19.565Z,8.38
2022-08-05T11:17:57.970Z,8.88
2022-08-05T11:20:34.857Z,9.18
2022-08-05T11:23:33.303Z,9.40
2022-08-05T11:26:28.927Z,9.45
2022-08-05T11:29:11.450Z,8.18
2022-08-05T11:31:57.742Z,8.90
2022-08-05T11:34:38.704Z,8.25
2022-08-05T11:37:55.151Z,9.48
2022-08-05T11:40:00.557Z,9.10
2022-08-05T11:42:38.060Z,8.90
2022-08-05T11:45:14.590Z,8.73
2022-08-05T11:47:54.852Z,8.90
2022-08-05T11:50:22.156Z,7.05
2022-08-05T11:52:51.099Z,8.55
2022-08-05T11:55:19.815Z,8.20
2022-08-05T11:58:10.061Z,8.75
2022-08-05T12:00:38.538Z,8.65
2022-08-05T12:03:16.715Z,8.75
2022-08-05T12:05:59.097Z,7.55
2022-08-05T12:08:26.524Z,7.20
2022-08-05T12:10:57.619Z,6.72
2022-08-05T12:13:48.360Z,5.97
2022-08-05T12:16:19.324Z,5.40
2022-08-05T12:18:49.465Z,5.35
2022-08-05T12:21:42.827Z,5.82
2022-08-05T12:24:13.828Z,5.90
2022-08-05T12:26:52.689Z,6.95
2022-08-05T12:29:23.630Z,6.50
2022-08-05T12:31:58.417Z,7.07
2022-08-05T12:34:37.156Z,7.45
2022-08-05T12:37:10.842Z,8.05
2022-08-05T12:39:45.145Z,8.10
2022-08-05T12:42:19.812Z,6.75
2022-08-05T12:44:47.464Z,6.35
2022-08-05T12:47:26.567Z,6.13
2022-08-05T12:50:03.389Z,5.78
2022-08-05T12:52:41.770Z,5.68
2022-08-05T12:55:25.654Z,4.88
2022-08-05T12:58:52.493Z,4.82
2022-08-05T13:02:03.862Z,4.82
2022-08-05T13:03:41.702Z,4.68
2022-08-05T13:06:13.678Z,4.97
2022-08-05T13:08:40.508Z,5.07
2022-08-05T13:11:18.020Z,4.47
2022-08-05T13:14:10.394Z,4.10
2022-08-05T13:16:56.682Z,3.83
2022-08-05T13:19:26.095Z,3.30
2022-08-05T13:21:56.740Z,3.17
2022-08-05T13:24:44.914Z,3.20
2022-08-05T13:27:11.340Z,3.42
2022-08-05T13:29:59.361Z,3.58
2022-08-05T13:32:33.992Z,3.45
2022-08-05T13:35:03.107Z,3.30
2022-08-05T13:37:34.940Z,3.30
2022-08-05T13:40:16.400Z,3.45
2022-08-05T13:42:46.989Z,3.63
2022-08-05T13:45:13.587Z,3.70
2022-08-05T13:48:09.711Z,3.03
2022-08-05T13:50:34.246Z,3.00
2022-08-05T13:53:00.968Z,2.70
2022-08-05T13:55:41.774Z,2.33
2022-08-05T13:58:14.279Z,2.38
2022-08-05T14:00:58.317Z,2.15
2022-08-05T14:03:29.879Z,1.98
2022-08-05T14:06:25.747Z,1.80
2022-08-05T14:08:45.792Z,2.13
2022-08-05T14:11:21.045Z,2.53
2022-08-05T14:13:48.659Z,2.20
2022-08-05T14:16:21.750Z,2.28
2022-08-05T14:18:48.512Z,2.40
2022-08-05T14:22:09.094Z,2.40
2022-08-05T14:24:02.750Z,2.33
2022-08-05T14:26:38.352Z,2.95
2022-08-05T14:29:16.665Z,2.25
2022-08-05T14:32:03.945Z,2.53
2022-08-05T14:34:35.451Z,1.88
2022-08-05T14:37:03.471Z,1.80
2022-08-05T14:39:31.826Z,1.63
2022-08-05T14:42:20.702Z,1.50
2022-08-05T14:44:48.284Z,1.90
2022-08-05T14:47:15.379Z,1.92
2022-08-05T14:49:59.199Z,1.67
2022-08-05T14:52:52.031Z,1.48
2022-08-05T14:55:15.544Z,1.35
2022-08-05T14:57:56.335Z,1.67
2022-08-05T15:00:27.805Z,1.70
2022-08-05T15:02:56.494Z,1.45
2022-08-05T15:05:30.065Z,1.80
2022-08-05T15:08:09.008Z,1.60
2022-08-05T15:10:43.305Z,1.88
2022-08-05T15:13:12.674Z,1.90
2022-08-05T15:15:55.106Z,1.88
2022-08-05T15:18:22.731Z,2.13
2022-08-05T15:20:49.841Z,1.70
2022-08-05T15:23:18.071Z,1.95
2022-08-05T15:25:52.279Z,2.30
2022-08-05T15:28:23.029Z,2.53
2022-08-05T15:30:54.722Z,2.38
2022-08-05T15:34:04.847Z,2.60
2022-08-05T15:36:16.752Z,2.85
2022-08-05T15:38:45.013Z,2.70
2022-08-05T15:41:21.064Z,2.40
2022-08-05T15:43:50.272Z,2.40
2022-08-05T15:46:18.875Z,2.92
2022-08-05T15:48:52.700Z,2.88
2022-08-05T15:52:12.459Z,2.63
2022-08-05T15:54:16.007Z,2.65
2022-08-05T15:56:42.786Z,2.88
2022-08-05T15:59:10.570Z,2.75
2022-08-05T16:01:52.526Z,2.70
2022-08-05T16:04:25.449Z,2.17
2022-08-05T16:06:53.950Z,2.60
2022-08-05T16:09:23.007Z,2.42
2022-08-05T16:11:52.766Z,2.67
2022-08-05T16:14:19.819Z,2.47
2022-08-05T16:16:47.279Z,2.47
2022-08-05T16:19:25.449Z,2.60
2022-08-05T16:22:02.937Z,2.30
2022-08-05T16:24:41.205Z,2.85
2022-08-05T16:27:09.119Z,2.78
2022-08-05T16:29:37.306Z,2.42
2022-08-05T16:32:05.173Z,2.75
2022-08-05T16:34:32.418Z,2.45
2022-08-05T16:36:59.082Z,2.63
2022-08-05T16:40:05.961Z,2.85
2022-08-05T16:42:17.598Z,2.60
2022-08-05T16:44:54.058Z,2.53
2022-08-05T16:47:28.619Z,2.25
2022-08-05T16:50:03.005Z,2.53
2022-08-05T16:52:33.403Z,2.58
2022-08-05T16:55:00.316Z,3.03
2022-08-05T16:57:53.646Z,2.30
2022-08-05T17:00:14.253Z,2.05
2022-08-05T17:02:53.323Z,2.33
2022-08-05T17:05:19.882Z,2.58
2022-08-05T17:07:54.520Z,2.60
2022-08-05T17:10:21.583Z,2.63
2022-08-05T17:12:54.674Z,2.60
2022-08-05T17:15:21.454Z,2.80
2022-08-05T17:17:55.093Z,3.03
2022-08-05T17:20:22.170Z,2.60
2022-08-05T17:22:55.202Z,2.88
2022-08-05T17:25:39.191Z,2.63
2022-08-05T17:28:07.828Z,2.70
2022-08-05T17:30:50.413Z,3.00
2022-08-05T17:33:18.382Z,3.47
2022-08-05T17:36:07.299Z,2.88
2022-08-05T17:38:33.114Z,3.20
2022-08-05T17:40:59.722Z,2.53
2022-08-05T17:43:46.769Z,2.33
2022-08-05T17:46:12.887Z,2.30
2022-08-05T17:48:40.374Z,2.20
2022-08-05T17:51:11.491Z,2.15
2022-08-05T17:53:39.495Z,2.55
2022-08-05T17:56:09.281Z,1.98
2022-08-05T17:58:37.655Z,2.00
2022-08-05T18:01:04.349Z,1.88
2022-08-05T18:04:03.938Z,2.03
2022-08-05T18:06:29.509Z,1.92
2022-08-05T18:08:58.330Z,1.80
2022-08-05T18:11:32.889Z,1.58
2022-08-05T18:14:07.095Z,1.77
2022-08-05T18:16:50.905Z,1.92
2022-08-05T18:19:22.812Z,1.65
2022-08-05T18:22:09.296Z,1.92
2022-08-05T18:24:37.654Z,1.98
2022-08-05T18:27:06.869Z,1.67
2022-08-05T18:29:44.864Z,2.13
2022-08-05T18:32:17.230Z,1.90
2022-08-05T18:34:44.024Z,1.65
2022-08-05T18:37:16.955Z,1.40
2022-08-05T18:40:34.496Z,1.02
2022-08-05T18:43:02.489Z,1.00
2022-08-05T18:45:41.416Z,1.10
2022-08-05T18:48:11.500Z,0.90
2022-08-05T18:50:57.157Z,0.90
2022-08-05T18:53:29.443Z,0.70
2022-08-05T18:56:01.337Z,0.80
2022-08-05T18:58:29.050Z,0.90
2022-08-05T19:00:56.456Z,0.75
2022-08-05T19:03:53.353Z,0.63
2022-08-05T19:06:18.550Z,0.60
2022-08-05T19:08:48.307Z,0.63
2022-08-05T19:11:14.937Z,0.57
2022-08-05T19:13:41.482Z,0.70
2022-08-05T19:16:25.046Z,0.70
2022-08-05T19:18:56.842Z,0.70
2022-08-05T19:21:29.425Z,0.70
2022-08-05T19:24:07.957Z,0.70
2022-08-05T19:26:36.554Z,0.88
2022-08-05T19:29:21.140Z,0.70
2022-08-05T19:31:50.797Z,0.82
2022-08-05T19:34:18.649Z,0.90
2022-08-05T19:36:45.414Z,1.23
2022-08-05T19:39:13.982Z,0.90
2022-08-05T19:42:05.662Z,0.88
2022-08-05T19:44:30.473Z,0.68
2022-08-05T19:46:57.040Z,0.73
2022-08-05T19:49:24.287Z,0.80
2022-08-05T19:52:04.733Z,0.70
2022-08-05T19:54:35.493Z,7.88
2022-08-05T19:57:06.451Z,5.13
2022-08-05T19:59:59.629Z,1.70
2022-08-05T20:02:26.031Z,1.20
2022-08-05T20:04:52.991Z,1.20
2022-08-05T20:07:46.428Z,0.85
2022-08-05T20:10:13.230Z,0.90
2022-08-05T20:12:48.122Z,2.63
2022-08-05T20:15:23.302Z,3.08
2022-08-05T20:18:10.147Z,2.20
2022-08-05T20:20:56.152Z,1.60
2022-08-05T20:23:40.409Z,2.55
2022-08-05T20:26:15.295Z,0.93
2022-08-05T20:28:44.334Z,0.70
2022-08-05T20:31:11.315Z,1.08
2022-08-05T20:33:38.019Z,0.77
2022-08-05T20:36:10.160Z,1.00
2022-08-05T20:38:37.876Z,0.90
2022-08-05T20:41:08.426Z,0.90
2022-08-05T20:43:58.648Z,0.90
2022-08-05T20:46:25.154Z,1.02
2022-08-05T20:48:52.330Z,0.85
2022-08-05T20:51:18.925Z,1.00
2022-08-05T20:53:56.580Z,1.20
2022-08-05T20:56:29.949Z,1.10
2022-08-05T20:59:04.164Z,0.90
2022-08-05T21:01:41.125Z,1.10
2022-08-05T21:04:10.403Z,0.90
2022-08-05T21:06:38.288Z,1.13
2022-08-05T21:09:14.324Z,0.95
2022-08-05T21:12:09.032Z,0.90
2022-08-05T21:14:29.400Z,0.80
2022-08-05T21:17:01.552Z,0.90
2022-08-05T21:19:29.623Z,0.95
2022-08-05T21:22:14.437Z,1.00
2022-08-05T21:24:41.064Z,1.10
2022-08-05T21:27:09.248Z,1.10
2022-08-05T21:29:40.565Z,1.00
2022-08-05T21:32:07.636Z,0.90
2022-08-05T21:34:35.571Z,0.88
2022-08-05T21:37:02.509Z,1.30
2022-08-05T21:39:29.221Z,1.05
2022-08-05T21:42:01.852Z,0.98
2022-08-05T21:44:29.925Z,0.93
2022-08-05T21:46:58.187Z,1.30
2022-08-05T21:49:58.932Z,1.05
2022-08-05T21:52:15.837Z,0.93
2022-08-05T21:54:51.907Z,1.10
2022-08-05T21:57:31.649Z,0.90
2022-08-05T22:00:05.531Z,1.27
2022-08-05T22:02:33.718Z,1.30
2022-08-05T22:05:00.363Z,1.13
2022-08-05T22:07:40.229Z,1.33
2022-08-05T22:10:16.327Z,1.27
2022-08-05T22:12:45.120Z,1.20
2022-08-05T22:16:00.686Z,1.25
2022-08-05T22:18:04.928Z,1.10
2022-08-05T22:20:31.572Z,1.30
2022-08-05T22:23:17.408Z,1.42
2022-08-05T22:26:10.524Z,1.40
2022-08-05T22:28:38.723Z,1.00
2022-08-05T22:31:05.960Z,1.13
2022-08-05T22:33:56.705Z,1.05
2022-08-05T22:36:24.133Z,1.10
2022-08-05T22:38:51.294Z,1.02
2022-08-05T22:42:04.480Z,1.17
2022-08-05T22:44:07.690Z,1.10
2022-08-05T22:46:34.255Z,1.35
2022-08-05T22:49:23.058Z,1.30
2022-08-05T22:52:05.105Z,1.20
2022-08-05T22:54:34.961Z,1.20
2022-08-05T22:57:01.572Z,1.10
2022-08-05T22:59:45.082Z,1.80
2022-08-05T23:02:16.953Z,1.40
2022-08-05T23:04:51.929Z,1.20
2022-08-05T23:07:21.925Z,1.30
2022-08-05T23:09:53.419Z,1.20
2022-08-05T23:12:25.395Z,1.40
2022-08-05T23:14:55.252Z,1.10
2022-08-05T23:17:34.480Z,1.30
2022-08-05T23:20:16.732Z,1.50
2022-08-05T23:22:47.661Z,1.50
2022-08-05T23:25:17.624Z,1.65
2022-08-05T23:28:04.006Z,1.27
2022-08-05T23:30:40.103Z,1.50
2022-08-05T23:33:22.077Z,1.70
2022-08-05T23:35:56.016Z,1.67
2022-08-05T23:38:23.412Z,1.52
2022-08-05T23:40:52.674Z,1.50
2022-08-05T23:43:25.229Z,1.30
2022-08-05T23:46:21.105Z,1.33
2022-08-05T23:49:00.973Z,1.40
2022-08-05T23:51:54.367Z,1.70
2022-08-05T23:54:25.860Z,1.50
2022-08-05T23:57:03.267Z,1.50
